Time;durP1;ratioP1;P1;durP2;ratioP2;P2;SDS_P1;SDS_P2;PMS_P1;PMS_P2;Temp;Humidity;BMP_temperature;BMP_pressure;BME280_temperature;BME280_humidity;BME280_pressure;Samples;Min_cycle;Max_cycle;Signal;HPM_P1;HPM_P2
2023/08/13 00:01:02;;;;;;;23.65;3.22;;;14.90;99.90;;;;;;5094705;28;20322;-62
2023/08/13 00:03:42;;;;;;;5.72;2.10;;;14.90;99.90;;;;;;5084825;28;20041;-62
2023/08/13 00:06:23;;;;;;;3.28;1.80;;;14.90;99.90;;;;;;5084307;28;20059;-61
2023/08/13 00:08:52;;;;;;;;;;;14.80;99.90;;;;;;5085750;28;20755;-62
2023/08/13 00:11:18;;;;;;;13.10;2.80;;;14.80;99.90;;;;;;5089729;28;19923;-61
2023/08/13 00:13:45;;;;;;;7.35;2.47;;;14.80;99.90;;;;;;5067536;28;20058;-63
2023/08/13 00:16:11;;;;;;;;;;;14.80;99.90;;;;;;5052785;28;20036;-61
2023/08/13 00:18:37;;;;;;;4.93;2.03;;;14.70;99.90;;;;;;5052506;28;19927;-63
2023/08/13 00:21:02;;;;;;;;;;;14.70;99.90;;;;;;5054658;28;20044;-62
2023/08/13 00:23:28;;;;;;;12.10;2.35;;;14.80;99.90;;;;;;5064927;28;19920;-61
2023/08/13 00:25:54;;;;;;;;;;;14.80;99.90;;;;;;5065020;28;20075;-60
2023/08/13 00:28:19;;;;;;;9.15;2.83;;;14.80;99.90;;;;;;5058506;28;20035;-59
2023/08/13 00:30:45;;;;;;;;;;;14.70;99.90;;;;;;5058225;28;21039;-61
2023/08/13 00:33:10;;;;;;;6.88;2.55;;;14.70;99.90;;;;;;5069774;28;19916;-60
2023/08/13 00:35:36;;;;;;;;;;;14.70;99.90;;;;;;5054299;28;20037;-62
2023/08/13 00:38:02;;;;;;;9.05;2.30;;;14.70;99.90;;;;;;5065596;28;19928;-64
2023/08/13 00:40:28;;;;;;;9.35;2.55;;;14.70;99.90;;;;;;5062087;28;20089;-62
2023/08/13 00:42:53;;;;;;;;;;;14.70;99.90;;;;;;5068441;28;20036;-60
2023/08/13 00:45:20;;;;;;;5.82;1.90;;;14.70;99.90;;;;;;5061931;28;19924;-62
2023/08/13 00:47:47;;;;;;;9.15;2.63;;;14.70;99.90;;;;;;5058402;28;20044;-61
2023/08/13 00:50:13;;;;;;;7.15;2.47;;;14.70;99.90;;;;;;5059718;28;20094;-62
2023/08/13 00:52:39;;;;;;;10.73;2.35;;;14.70;99.90;;;;;;5066048;28;20044;-62
2023/08/13 00:55:06;;;;;;;5.57;2.30;;;14.70;99.90;;;;;;5056502;28;20103;-63
2023/08/13 00:57:32;;;;;;;9.68;2.25;;;14.70;99.90;;;;;;5056012;28;20041;-62
2023/08/13 00:59:58;;;;;;;;;;;14.70;99.90;;;;;;5064879;28;20055;-61
2023/08/13 01:02:24;;;;;;;8.37;2.00;;;14.60;99.90;;;;;;5061822;28;19927;-61
2023/08/13 01:04:50;;;;;;;8.65;2.08;;;14.70;99.90;;;;;;5062814;28;20033;-62
2023/08/13 01:07:25;;;;;;;5.78;2.15;;;14.60;99.90;;;;;;5058590;28;20093;-61
2023/08/13 01:10:06;;;;;;;4.90;2.20;;;14.70;99.90;;;;;;5055015;28;20111;-62
2023/08/13 01:12:50;;;;;;;13.32;2.20;;;14.70;99.90;;;;;;5066126;28;20778;-62
2023/08/13 01:15:18;;;;;;;5.63;1.90;;;14.60;99.90;;;;;;5064387;28;20035;-62
2023/08/13 01:17:47;;;;;;;4.93;2.10;;;14.60;99.90;;;;;;5057053;28;20049;-61
2023/08/13 01:20:14;;;;;;;9.77;2.80;;;14.60;99.90;;;;;;5062872;28;20036;-62
2023/08/13 01:22:46;;;;;;;7.18;2.05;;;14.60;99.90;;;;;;5075124;28;20096;-62
2023/08/13 01:25:12;;;;;;;20.52;2.33;;;14.60;99.90;;;;;;5070307;28;20036;-61
2023/08/13 01:27:44;;;;;;;11.52;2.70;;;14.60;99.90;;;;;;5060113;28;20063;-61
2023/08/13 01:30:31;;;;;;;7.82;1.88;;;14.60;99.90;;;;;;5068750;28;20144;-61
2023/08/13 01:33:03;;;;;;;5.70;2.00;;;14.60;99.90;;;;;;5085648;28;20546;-58
2023/08/13 01:35:31;;;;;;;7.25;2.05;;;14.60;99.90;;;;;;5092734;28;20128;-61
2023/08/13 01:37:59;;;;;;;5.80;1.90;;;14.60;99.90;;;;;;5099948;28;20035;-62
2023/08/13 01:40:25;;;;;;;6.45;2.13;;;14.60;99.90;;;;;;5096826;28;20043;-62
2023/08/13 01:42:51;;;;;;;;;;;14.50;99.90;;;;;;5099630;28;20039;-62
2023/08/13 01:45:17;;;;;;;9.40;2.33;;;14.50;99.90;;;;;;5097321;28;19962;-60
2023/08/13 01:47:42;;;;;;;;;;;14.40;99.90;;;;;;5093489;28;20096;-62
2023/08/13 01:50:08;;;;;;;8.93;2.35;;;14.40;99.90;;;;;;5092197;28;19926;-62
2023/08/13 01:52:34;;;;;;;8.07;2.22;;;14.40;99.90;;;;;;5099476;28;20047;-62
2023/08/13 01:55:00;;;;;;;;;;;14.30;99.90;;;;;;5091225;28;20036;-63
2023/08/13 01:57:25;;;;;;;9.65;2.00;;;14.30;99.90;;;;;;5107947;27;19997;-62
2023/08/13 01:59:51;;;;;;;;;;;14.20;99.90;;;;;;5091079;28;20031;-63
2023/08/13 02:02:16;;;;;;;9.10;2.30;;;14.20;99.90;;;;;;5070898;28;19924;-61
2023/08/13 02:04:42;;;;;;;;;;;14.20;99.90;;;;;;5073053;28;20245;-62
2023/08/13 02:07:08;;;;;;;14.38;2.88;;;14.20;99.90;;;;;;5078678;28;19981;-63
2023/08/13 02:09:34;;;;;;;;;;;14.20;99.90;;;;;;5074351;28;20040;-62
2023/08/13 02:11:59;;;;;;;12.98;2.10;;;14.20;99.90;;;;;;5080611;28;20011;-63
2023/08/13 02:14:25;;;;;;;7.95;2.22;;;14.20;99.90;;;;;;5066612;28;20036;-62
2023/08/13 02:16:51;;;;;;;8.15;2.63;;;14.30;99.90;;;;;;5061258;28;20048;-61
2023/08/13 02:19:16;;;;;;;;;;;14.30;99.90;;;;;;5080297;28;20040;-60
2023/08/13 02:21:42;;;;;;;14.73;2.78;;;14.40;99.90;;;;;;5072954;28;20406;-63
2023/08/13 02:24:07;;;;;;;;;;;14.40;99.90;;;;;;5080442;28;20040;-62
2023/08/13 02:26:33;;;;;;;6.97;2.00;;;14.40;99.90;;;;;;5078200;28;19924;-61
2023/08/13 02:28:58;;;;;;;;;;;14.40;99.90;;;;;;5076011;28;20063;-61
2023/08/13 02:31:24;;;;;;;7.40;2.28;;;14.40;99.90;;;;;;5068335;28;19919;-62
2023/08/13 02:33:50;;;;;;;;;;;14.40;99.90;;;;;;5077693;28;20032;-62
2023/08/13 02:36:16;;;;;;;8.05;2.00;;;14.50;99.90;;;;;;5074241;28;19923;-62
2023/08/13 02:38:41;;;;;;;;;;;14.50;99.90;;;;;;5074926;28;20044;-61
2023/08/13 02:41:07;;;;;;;6.68;1.98;;;14.40;99.90;;;;;;5080193;28;20022;-62
2023/08/13 02:43:48;;;;;;;;;;;14.40;99.90;;;;;;5081197;28;20056;-61
2023/08/13 02:46:13;;;;;;;7.72;2.05;;;14.40;99.90;;;;;;5070723;28;20040;-62
2023/08/13 02:48:39;;;;;;;;;;;14.30;99.90;;;;;;5078728;28;20123;-62
2023/08/13 02:51:04;;;;;;;3.63;1.50;;;14.30;99.90;;;;;;5080830;28;20039;-61
2023/08/13 02:53:30;;;;;;;7.97;2.22;;;14.20;99.90;;;;;;5076915;28;20821;-61
2023/08/13 02:55:55;;;;;;;;;;;14.20;99.90;;;;;;5076353;28;20043;-60
2023/08/13 02:58:21;;;;;;;6.07;1.95;;;14.20;99.90;;;;;;5075258;28;19920;-61
2023/08/13 03:00:46;;;;;;;7.28;2.42;;;14.10;99.90;;;;;;5073115;28;20085;-61
2023/08/13 03:03:12;;;;;;;;;;;14.10;99.90;;;;;;5070486;28;20036;-61
2023/08/13 03:05:38;;;;;;;4.85;1.90;;;14.10;99.90;;;;;;5072942;28;19931;-61
2023/08/13 03:08:04;;;;;;;6.72;2.47;;;14.10;99.90;;;;;;5078256;28;20062;-61
2023/08/13 03:10:29;;;;;;;;;;;14.10;99.90;;;;;;5078012;28;20040;-61
2023/08/13 03:12:55;;;;;;;13.15;2.10;;;14.10;99.90;;;;;;5075706;28;19928;-62
2023/08/13 03:15:20;;;;;;;7.75;2.30;;;14.10;99.90;;;;;;5081178;28;20037;-62
2023/08/13 03:17:48;;;;;;;10.55;2.38;;;14.10;99.90;;;;;;5076947;28;20043;-62
2023/08/13 03:20:14;;;;;;;4.43;2.10;;;14.10;99.90;;;;;;5076652;28;20040;-63
2023/08/13 03:22:40;;;;;;;;;;;14.10;99.90;;;;;;5065876;28;20158;-61
2023/08/13 03:25:06;;;;;;;7.75;2.50;;;14.00;99.90;;;;;;5058488;28;19920;-62
2023/08/13 03:27:32;;;;;;;;;;;14.10;99.90;;;;;;5061504;28;20484;-61
2023/08/13 03:29:57;;;;;;;7.50;1.90;;;14.10;99.90;;;;;;5064228;28;19959;-62
2023/08/13 03:32:23;;;;;;;;;;;14.10;99.90;;;;;;5065414;28;20044;-60
2023/08/13 03:34:48;;;;;;;6.78;2.33;;;14.10;99.90;;;;;;5067669;28;19923;-61
2023/08/13 03:37:14;;;;;;;6.47;2.00;;;14.10;99.90;;;;;;5058826;28;20773;-61
2023/08/13 03:39:39;;;;;;;7.90;2.75;;;14.10;99.90;;;;;;5066558;28;20052;-62
2023/08/13 03:42:05;;;;;;;;;;;14.10;99.90;;;;;;5066172;28;20035;-62
2023/08/13 03:44:31;;;;;;;9.15;2.33;;;14.10;99.90;;;;;;5069124;28;19924;-62
2023/08/13 03:46:56;;;;;;;;;;;14.20;99.90;;;;;;5072807;28;20063;-62
2023/08/13 03:49:22;;;;;;;9.38;2.03;;;14.10;99.90;;;;;;5069711;28;20449;-62
2023/08/13 03:51:47;;;;;;;;;;;14.20;99.90;;;;;;5075440;28;20063;-62
2023/08/13 03:54:13;;;;;;;6.50;2.20;;;14.20;99.90;;;;;;5061626;28;20030;-61
2023/08/13 03:56:39;;;;;;;8.40;2.30;;;14.20;99.90;;;;;;5062071;28;20839;-62
2023/08/13 03:59:04;;;;;;;3.97;2.10;;;14.20;99.90;;;;;;5075645;28;20036;-61
2023/08/13 04:01:30;;;;;;;;;;;14.20;99.90;;;;;;5074475;28;20863;-61
2023/08/13 04:03:55;;;;;;;4.85;1.85;;;14.20;99.90;;;;;;5069623;28;19919;-61
2023/08/13 04:06:21;;;;;;;;;;;14.20;99.90;;;;;;5077984;28;20047;-61
2023/08/13 04:08:47;;;;;;;9.35;2.40;;;14.20;99.90;;;;;;5077896;28;19969;-60
2023/08/13 04:11:13;;;;;;;;;;;14.20;99.90;;;;;;5078548;28;20097;-61
2023/08/13 04:13:38;;;;;;;5.38;2.42;;;14.30;99.90;;;;;;5080261;28;20415;-61
2023/08/13 04:16:04;;;;;;;;;;;14.20;99.90;;;;;;5067184;28;20037;-61
2023/08/13 04:18:29;;;;;;;5.18;1.55;;;14.20;99.90;;;;;;5065070;28;19955;-61
2023/08/13 04:20:55;;;;;;;16.33;1.98;;;14.30;99.90;;;;;;5079086;28;20433;-61
2023/08/13 04:23:20;;;;;;;;;;;14.30;99.90;;;;;;5076968;28;20106;-62
2023/08/13 04:25:46;;;;;;;6.13;2.05;;;14.30;99.90;;;;;;5080114;28;19924;-62
2023/08/13 04:28:11;;;;;;;;;;;14.30;99.90;;;;;;5077726;28;20024;-62
2023/08/13 04:30:37;;;;;;;10.93;2.25;;;14.20;99.90;;;;;;5077070;28;19919;-61
2023/08/13 04:33:03;;;;;;;;;;;14.30;99.90;;;;;;5075931;28;20040;-62
2023/08/13 04:35:28;;;;;;;10.80;2.10;;;14.30;99.90;;;;;;5077217;28;19931;-62
2023/08/13 04:37:54;;;;;;;;;;;14.30;99.90;;;;;;5079118;28;20048;-62
2023/08/13 04:40:20;;;;;;;5.75;1.70;;;14.30;99.90;;;;;;5079614;28;20018;-61
2023/08/13 04:42:45;;;;;;;5.47;1.65;;;14.30;99.90;;;;;;5099830;28;20035;-62
2023/08/13 04:45:15;;;;;;;;;;;14.40;99.90;;;;;;5074931;28;20862;-61
2023/08/13 04:47:41;;;;;;;7.60;2.22;;;14.40;99.90;;;;;;5080813;28;20030;-63
2023/08/13 04:50:07;;;;;;;;;;;14.40;99.90;;;;;;5081922;28;20123;-61
2023/08/13 04:52:33;;;;;;;4.35;1.92;;;14.40;99.90;;;;;;5077607;28;20614;-62
2023/08/13 04:54:58;;;;;;;;;;;14.50;99.90;;;;;;5079918;28;20036;-62
2023/08/13 04:57:24;;;;;;;4.90;2.30;;;14.50;99.90;;;;;;5077906;28;19916;-62
2023/08/13 04:59:49;;;;;;;;;;;14.50;99.90;;;;;;5078281;28;20041;-61
2023/08/13 05:02:15;;;;;;;6.65;2.20;;;14.60;99.90;;;;;;5070692;28;19977;-62
2023/08/13 05:04:40;;;;;;;;;;;14.60;99.90;;;;;;5059764;28;20044;-62
2023/08/13 05:07:06;;;;;;;7.97;2.10;;;14.50;99.90;;;;;;5063401;28;20299;-62
2023/08/13 05:09:32;;;;;;;;;;;14.50;99.90;;;;;;5059744;28;20044;-62
2023/08/13 05:11:57;;;;;;;13.13;2.47;;;14.60;99.90;;;;;;5064309;28;19920;-62
2023/08/13 05:14:23;;;;;;;;;;;14.60;99.90;;;;;;5066116;28;20048;-62
2023/08/13 05:16:48;;;;;;;8.68;2.08;;;14.60;99.90;;;;;;5064494;28;19920;-61
2023/08/13 05:19:14;;;;;;;9.38;1.95;;;14.60;99.90;;;;;;5066292;28;20091;-62
2023/08/13 05:21:40;;;;;;;;;;;14.70;99.90;;;;;;5062802;28;20047;-65
2023/08/13 05:24:06;;;;;;;3.47;1.88;;;14.70;99.90;;;;;;5063303;28;19920;-62
2023/08/13 05:26:31;;;;;;;6.40;2.00;;;14.70;99.90;;;;;;5057814;28;20127;-62
2023/08/13 05:28:57;;;;;;;;;;;14.70;99.90;;;;;;5073358;28;20130;-62
2023/08/13 05:31:23;;;;;;;6.25;1.98;;;14.70;99.90;;;;;;5062171;28;20650;-62
2023/08/13 05:33:48;;;;;;;;;;;14.70;99.90;;;;;;5067628;28;20035;-62
2023/08/13 05:36:14;;;;;;;4.55;1.55;;;14.80;99.90;;;;;;5063895;28;20370;-62
2023/08/13 05:38:40;;;;;;;6.85;2.17;;;14.80;99.90;;;;;;5066218;28;20040;-63
2023/08/13 05:41:05;;;;;;;;;;;14.80;99.90;;;;;;5063477;28;20036;-62
2023/08/13 05:43:31;;;;;;;4.75;2.00;;;14.90;99.90;;;;;;5070728;28;20336;-62
2023/08/13 05:45:56;;;;;;;;;;;14.90;99.90;;;;;;5066463;28;20059;-62
2023/08/13 05:48:22;;;;;;;5.40;1.70;;;14.90;99.90;;;;;;5057271;28;19924;-61
2023/08/13 05:50:48;;;;;;;6.85;1.75;;;14.90;99.90;;;;;;5069593;28;20059;-60
2023/08/13 05:53:14;;;;;;;8.65;2.63;;;15.00;99.90;;;;;;5069831;28;20570;-61
2023/08/13 05:55:40;;;;;;;;;;;15.00;99.90;;;;;;5071389;28;20051;-63
2023/08/13 05:58:06;;;;;;;8.07;2.42;;;15.00;99.90;;;;;;5062053;28;19927;-62
2023/08/13 06:00:31;;;;;;;;;;;15.10;99.90;;;;;;5065749;28;20044;-61
2023/08/13 06:02:57;;;;;;;3.15;2.05;;;15.10;99.90;;;;;;5071049;28;19920;-62
2023/08/13 06:05:23;;;;;;;8.05;2.38;;;15.10;99.90;;;;;;5060585;28;20040;-61
2023/08/13 06:07:48;;;;;;;;;;;15.20;99.90;;;;;;5065758;28;20156;-63
2023/08/13 06:10:14;;;;;;;8.63;2.00;;;15.20;99.90;;;;;;5076598;28;19922;-63
2023/08/13 06:12:40;;;;;;;;;;;15.20;99.90;;;;;;5064020;28;20036;-63
2023/08/13 06:15:06;;;;;;;3.22;2.08;;;15.30;99.90;;;;;;5062482;28;19965;-62
2023/08/13 06:17:31;;;;;;;;;;;15.40;99.90;;;;;;5070656;28;20083;-61
2023/08/13 06:19:58;;;;;;;6.72;2.20;;;15.50;99.90;;;;;;5072642;28;20786;-62
2023/08/13 06:22:23;;;;;;;8.25;1.92;;;15.60;99.90;;;;;;5063645;28;20044;-62
2023/08/13 06:24:49;;;;;;;;;;;15.80;99.90;;;;;;5070523;28;20032;-63
2023/08/13 06:27:15;;;;;;;4.65;1.88;;;15.90;99.90;;;;;;5060216;28;19931;-62
2023/08/13 06:29:40;;;;;;;4.95;1.95;;;16.10;99.90;;;;;;5057485;28;21090;-59
2023/08/13 06:32:06;;;;;;;5.53;2.33;;;16.10;99.90;;;;;;5068743;28;20068;-61
2023/08/13 06:34:32;;;;;;;7.72;2.38;;;16.20;99.90;;;;;;5063484;28;20044;-61
2023/08/13 06:36:57;;;;;;;6.13;1.95;;;16.40;99.90;;;;;;5067794;28;20063;-62
2023/08/13 06:39:23;;;;;;;9.65;2.20;;;16.60;99.90;;;;;;5069710;28;20097;-59
2023/08/13 06:41:49;;;;;;;2.70;1.70;;;16.90;99.90;;;;;;5070052;28;20035;-61
2023/08/13 06:44:19;;;;;;;6.03;2.42;;;17.00;99.90;;;;;;5082264;28;20032;-62
2023/08/13 06:46:48;;;;;;;7.13;2.63;;;17.10;99.90;;;;;;5075764;28;20048;-61
2023/08/13 06:49:14;;;;;;;10.27;2.22;;;17.10;99.90;;;;;;5068219;28;20040;-61
2023/08/13 06:51:39;;;;;;;;;;;17.30;99.90;;;;;;5064762;28;20040;-62
2023/08/13 06:54:06;;;;;;;7.35;2.20;;;17.30;99.90;;;;;;5066937;28;19927;-61
2023/08/13 06:56:32;;;;;;;4.97;2.17;;;17.40;99.90;;;;;;5063939;28;20109;-62
2023/08/13 06:58:58;;;;;;;6.88;2.00;;;17.40;99.90;;;;;;5066721;28;20457;-61
2023/08/13 07:01:24;;;;;;;;;;;17.40;99.90;;;;;;5068997;28;20037;-60
2023/08/13 07:03:49;;;;;;;6.10;2.00;;;17.50;99.90;;;;;;5060924;28;19924;-60
2023/08/13 07:06:15;;;;;;;;;;;17.50;99.90;;;;;;5039097;28;20086;-61
2023/08/13 07:08:40;;;;;;;7.85;2.45;;;17.50;99.90;;;;;;5077659;28;19920;-61
2023/08/13 07:11:06;;;;;;;9.65;3.67;;;17.60;99.90;;;;;;5080372;28;20031;-60
2023/08/13 07:13:32;;;;;;;6.45;2.80;;;17.70;99.90;;;;;;5069876;28;20040;-61
2023/08/13 07:15:57;;;;;;;8.43;2.70;;;17.70;99.90;;;;;;5066018;28;20039;-62
2023/08/13 07:18:23;;;;;;;5.60;2.25;;;17.70;99.90;;;;;;5061747;28;20050;-59
2023/08/13 07:20:49;;;;;;;10.10;2.92;;;17.80;99.90;;;;;;5063966;28;20072;-62
2023/08/13 07:23:14;;;;;;;6.22;2.65;;;17.80;99.90;;;;;;5075348;28;20037;-61
2023/08/13 07:25:40;;;;;;;9.85;2.45;;;17.80;99.90;;;;;;5055071;28;20032;-60
2023/08/13 07:28:08;;;;;;;;;;;17.80;99.90;;;;;;5082361;28;20036;-62
2023/08/13 07:30:34;;;;;;;8.90;2.90;;;17.90;99.90;;;;;;5075445;28;19924;-61
2023/08/13 07:33:00;;;;;;;;;;;17.90;99.90;;;;;;5079472;28;20039;-59
2023/08/13 07:35:25;;;;;;;10.18;2.38;;;18.00;99.90;;;;;;5064039;28;19916;-61
2023/08/13 07:37:52;;;;;;;10.18;2.33;;;18.00;99.90;;;;;;5068937;28;20518;-60
2023/08/13 07:40:18;;;;;;;6.28;2.22;;;18.00;99.90;;;;;;5066329;28;20044;-60
2023/08/13 07:42:44;;;;;;;;;;;18.20;99.90;;;;;;5066733;28;20044;-59
2023/08/13 07:45:10;;;;;;;8.15;2.60;;;18.30;99.90;;;;;;5061388;28;19920;-59
2023/08/13 07:47:37;;;;;;;14.65;2.95;;;18.30;99.90;;;;;;5072300;28;20052;-61
2023/08/13 07:50:07;;;;;;;19.10;2.83;;;18.30;99.90;;;;;;5078760;28;20043;-61
2023/08/13 07:52:34;;;;;;;10.82;2.35;;;18.40;99.90;;;;;;5069393;28;20048;-60
2023/08/13 07:55:00;;;;;;;9.43;1.95;;;18.60;99.90;;;;;;5071638;28;20043;-59
2023/08/13 07:57:26;;;;;;;12.60;2.83;;;18.50;99.90;;;;;;5064448;28;20053;-59
2023/08/13 07:59:52;;;;;;;;;;;18.50;99.90;;;;;;5064547;28;20552;-62
2023/08/13 08:02:17;;;;;;;7.50;2.53;;;18.50;99.90;;;;;;5076895;28;19927;-61
2023/08/13 08:04:44;;;;;;;;;;;18.60;99.90;;;;;;5067017;28;20029;-60
2023/08/13 08:07:10;;;;;;;;;;;18.80;99.90;;;;;;5068487;28;19925;-60
2023/08/13 08:09:36;;;;;;;11.65;3.22;;;19.00;99.90;;;;;;5064689;28;19981;-62
2023/08/13 08:12:01;;;;;;;6.05;2.20;;;19.50;99.90;;;;;;5064952;28;20119;-61
2023/08/13 08:14:27;;;;;;;8.52;3.10;;;20.10;99.90;;;;;;5075468;28;20543;-61
2023/08/13 08:16:57;;;;;;;10.40;2.88;;;20.10;99.90;;;;;;5064888;28;20044;-61
2023/08/13 08:19:23;;;;;;;5.47;2.20;;;19.90;99.90;;;;;;5060108;28;20043;-59
2023/08/13 08:21:49;;;;;;;7.60;2.25;;;20.20;99.90;;;;;;5077121;28;20040;-61
2023/08/13 08:24:14;;;;;;;9.30;2.58;;;20.90;99.90;;;;;;5074644;28;20040;-61
2023/08/13 08:26:40;;;;;;;7.13;2.33;;;20.90;99.90;;;;;;5066880;28;20059;-61
2023/08/13 08:29:06;;;;;;;7.68;1.90;;;20.50;99.90;;;;;;5061184;28;20125;-65
2023/08/13 08:31:31;;;;;;;10.43;2.50;;;20.10;99.90;;;;;;5061593;28;20041;-61
2023/08/13 08:33:57;;;;;;;13.27;2.08;;;19.90;99.90;;;;;;5077674;28;20032;-59
2023/08/13 08:36:23;;;;;;;7.18;2.10;;;19.60;99.90;;;;;;5073059;28;20052;-61
2023/08/13 08:38:48;;;;;;;13.80;2.83;;;19.30;99.90;;;;;;5066364;28;20043;-62
2023/08/13 08:41:15;;;;;;;6.78;2.17;;;19.20;99.90;;;;;;5078991;28;20051;-58
2023/08/13 08:43:42;;;;;;;7.82;2.08;;;19.00;99.90;;;;;;5068949;28;20036;-62
2023/08/13 08:46:11;;;;;;;9.35;2.55;;;19.00;99.90;;;;;;5079771;28;20046;-59
2023/08/13 08:48:39;;;;;;;7.38;2.05;;;18.90;99.90;;;;;;5075102;28;20052;-61
2023/08/13 08:51:06;;;;;;;9.57;2.10;;;19.00;99.90;;;;;;5083607;28;20047;-61
2023/08/13 08:53:34;;;;;;;7.20;2.35;;;19.00;99.90;;;;;;5063519;28;20048;-60
2023/08/13 08:56:00;;;;;;;11.48;2.47;;;19.10;99.90;;;;;;5082784;28;20043;-61
2023/08/13 08:58:27;;;;;;;7.10;2.40;;;19.20;99.90;;;;;;5073291;28;20036;-61
2023/08/13 09:00:59;;;;;;;5.28;2.05;;;19.10;99.90;;;;;;5068279;28;20680;-61
2023/08/13 09:03:26;;;;;;;6.72;1.98;;;19.10;99.90;;;;;;5071533;28;20407;-59
2023/08/13 09:05:51;;;;;;;7.60;2.45;;;19.00;99.90;;;;;;5067827;28;20127;-59
2023/08/13 09:08:19;;;;;;;;;;;19.00;99.90;;;;;;5062868;28;20144;-62
2023/08/13 09:10:45;;;;;;;9.00;2.30;;;19.00;99.90;;;;;;5068661;28;19920;-62
2023/08/13 09:13:11;;;;;;;9.65;2.85;;;18.90;99.90;;;;;;5073383;28;20051;-60
2023/08/13 09:15:49;;;;;;;9.70;2.42;;;18.90;99.90;;;;;;5064780;28;20063;-61
2023/08/13 09:18:15;;;;;;;7.35;2.05;;;18.80;99.90;;;;;;5075522;28;20032;-58
2023/08/13 09:20:42;;;;;;;;;;;18.80;99.90;;;;;;5083038;28;20530;-60
2023/08/13 09:23:07;;;;;;;6.68;1.98;;;18.70;99.90;;;;;;5069562;28;19921;-61
2023/08/13 09:25:33;;;;;;;;;;;18.70;99.90;;;;;;5072790;28;20119;-59
2023/08/13 09:27:59;;;;;;;9.60;2.13;;;18.70;99.90;;;;;;5070373;28;19927;-61
2023/08/13 09:30:29;;;;;;;9.80;3.13;;;18.80;99.90;;;;;;5065756;28;20051;-62
2023/08/13 09:32:59;;;;;;;5.97;2.17;;;18.80;99.90;;;;;;5074483;28;20044;-61
2023/08/13 09:35:26;;;;;;;7.38;2.60;;;18.80;99.90;;;;;;5071710;28;20156;-61
2023/08/13 09:37:53;;;;;;;9.18;2.30;;;18.90;99.90;;;;;;5074179;28;20115;-59
2023/08/13 09:40:18;;;;;;;11.25;2.15;;;18.90;99.90;;;;;;5068654;28;20036;-62
2023/08/13 09:42:45;;;;;;;;;;;18.90;99.90;;;;;;5060659;28;20428;-59
2023/08/13 09:45:12;;;;;;;;;;;19.00;99.90;;;;;;5075180;28;19920;-60
2023/08/13 09:47:43;;;;;;;6.95;1.65;;;19.00;99.90;;;;;;5072351;28;19972;-59
2023/08/13 09:50:11;;;;;;;10.35;2.17;;;19.00;99.90;;;;;;5072584;28;20416;-60
2023/08/13 09:52:41;;;;;;;7.05;2.13;;;18.90;99.90;;;;;;5065624;28;20040;-59
2023/08/13 09:55:09;;;;;;;6.72;2.45;;;18.90;99.90;;;;;;5063028;28;20036;-59
2023/08/13 09:57:37;;;;;;;8.68;1.85;;;18.80;99.90;;;;;;5059952;28;20044;-62
2023/08/13 10:00:03;;;;;;;10.20;1.80;;;18.80;99.90;;;;;;5071810;28;20040;-62
2023/08/13 10:02:29;;;;;;;;;;;18.80;99.90;;;;;;5061926;28;20047;-63
2023/08/13 10:04:55;;;;;;;10.30;2.20;;;18.80;99.90;;;;;;5068117;28;19916;-63
2023/08/13 10:07:22;;;;;;;11.98;2.60;;;18.80;99.90;;;;;;5058054;28;20044;-62
2023/08/13 10:09:49;;;;;;;10.55;2.33;;;18.80;99.90;;;;;;5068664;28;20044;-62
2023/08/13 10:12:14;;;;;;;4.53;1.85;;;18.80;99.90;;;;;;5071346;28;20044;-62
2023/08/13 10:14:41;;;;;;;;;;;19.00;99.90;;;;;;5076060;28;20090;-61
2023/08/13 10:17:07;;;;;;;11.13;2.90;;;19.20;99.90;;;;;;5071518;28;19920;-62
2023/08/13 10:19:37;;;;;;;8.40;3.17;;;19.40;99.90;;;;;;5063757;28;20032;-60
2023/08/13 10:22:03;;;;;;;9.52;2.05;;;19.40;99.90;;;;;;5065469;28;20040;-60
2023/08/13 10:24:29;;;;;;;;;;;19.30;99.90;;;;;;5064496;28;20036;-62
2023/08/13 10:26:55;;;;;;;7.45;2.53;;;19.30;99.90;;;;;;5062346;28;19920;-61
2023/08/13 10:29:21;;;;;;;;;;;19.30;99.90;;;;;;5070544;28;20047;-61
2023/08/13 10:31:59;;;;;;;7.60;2.13;;;19.30;99.90;;;;;;5072732;28;19916;-60
2023/08/13 10:34:46;;;;;;;9.98;2.70;;;19.30;99.90;;;;;;5062916;28;20037;-63
2023/08/13 10:37:20;;;;;;;10.07;2.65;;;19.30;99.90;;;;;;5067214;28;20138;-63
2023/08/13 10:39:57;;;;;;;8.20;2.20;;;19.40;99.90;;;;;;5068107;28;20036;-63
2023/08/13 10:42:26;;;;;;;5.22;2.28;;;19.30;99.90;;;;;;5070499;28;20056;-60
2023/08/13 10:44:53;;;;;;;7.70;2.30;;;19.30;99.90;;;;;;5067519;28;20670;-62
2023/08/13 10:47:19;;;;;;;11.05;2.40;;;19.30;99.90;;;;;;5063137;28;20074;-60
2023/08/13 10:49:44;;;;;;;;;;;19.40;99.90;;;;;;5067017;28;20041;-61
2023/08/13 10:52:13;;;;;;;4.97;2.00;;;19.50;99.90;;;;;;5068788;28;20014;-63
2023/08/13 10:54:39;;;;;;;6.90;2.20;;;19.60;99.90;;;;;;5068598;28;20047;-62
2023/08/13 10:57:05;;;;;;;5.32;2.10;;;19.50;99.90;;;;;;5069322;28;20622;-61
2023/08/13 10:59:33;;;;;;;4.80;2.30;;;19.60;99.90;;;;;;5072391;28;20044;-61
2023/08/13 11:02:15;;;;;;;10.65;2.38;;;19.80;99.90;;;;;;5063500;28;20155;-59
2023/08/13 11:04:43;;;;;;;7.95;2.25;;;19.80;99.90;;;;;;5065166;28;20032;-61
2023/08/13 11:07:10;;;;;;;3.85;1.90;;;20.00;99.90;;;;;;5060537;28;20052;-61
2023/08/13 11:09:38;;;;;;;5.97;2.20;;;20.00;99.90;;;;;;5059433;28;20040;-61
2023/08/13 11:12:05;;;;;;;6.43;1.85;;;20.00;99.90;;;;;;5069812;28;20036;-61
2023/08/13 11:14:31;;;;;;;10.85;2.33;;;20.00;99.90;;;;;;5068185;28;20131;-61
2023/08/13 11:16:57;;;;;;;6.60;2.05;;;20.00;99.90;;;;;;5068385;28;20068;-60
2023/08/13 11:19:22;;;;;;;4.90;1.58;;;20.00;99.90;;;;;;5067598;28;20087;-61
2023/08/13 11:21:48;;;;;;;9.32;2.28;;;20.00;99.90;;;;;;5067764;28;20040;-61
2023/08/13 11:24:14;;;;;;;10.48;2.40;;;20.10;99.90;;;;;;5067754;28;20131;-60
2023/08/13 11:26:40;;;;;;;8.85;2.08;;;20.20;99.90;;;;;;5066009;28;20040;-61
2023/08/13 11:29:06;;;;;;;4.70;1.95;;;20.40;99.90;;;;;;5066109;28;20124;-61
2023/08/13 11:31:35;;;;;;;4.85;1.60;;;20.50;99.90;;;;;;5067785;28;20623;-60
2023/08/13 11:34:00;;;;;;;8.55;1.95;;;20.60;99.90;;;;;;5065584;28;20709;-61
2023/08/13 11:36:27;;;;;;;8.73;2.40;;;20.70;99.90;;;;;;5064086;28;20041;-61
2023/08/13 11:38:53;;;;;;;5.65;2.00;;;20.70;99.90;;;;;;5061193;28;20454;-61
2023/08/13 11:41:21;;;;;;;3.63;1.80;;;20.60;99.90;;;;;;5070145;28;20042;-61
2023/08/13 11:43:55;;;;;;;11.15;2.78;;;20.50;99.90;;;;;;5058093;28;20124;-61
2023/08/13 11:46:22;;;;;;;5.22;1.67;;;20.50;99.90;;;;;;5072603;28;20127;-61
2023/08/13 11:48:54;;;;;;;6.22;2.03;;;20.70;99.90;;;;;;5071413;28;20616;-62
2023/08/13 11:51:24;;;;;;;8.57;1.90;;;20.70;99.90;;;;;;5066191;28;20597;-61
2023/08/13 11:53:50;;;;;;;9.35;2.28;;;20.60;99.90;;;;;;5071446;28;20571;-62
2023/08/13 11:56:18;;;;;;;4.65;2.40;;;20.60;99.90;;;;;;5062627;28;20044;-62
2023/08/13 11:58:44;;;;;;;7.88;2.20;;;20.60;99.90;;;;;;5064724;28;20040;-62
2023/08/13 12:01:11;;;;;;;3.72;1.55;;;20.80;99.90;;;;;;5064384;28;20052;-61
2023/08/13 12:03:39;;;;;;;5.53;1.45;;;21.10;99.90;;;;;;5068678;28;20626;-62
2023/08/13 12:06:05;;;;;;;5.15;1.52;;;21.00;99.90;;;;;;5066025;28;20048;-62
2023/08/13 12:08:31;;;;;;;8.10;1.83;;;21.00;99.90;;;;;;5069181;28;20044;-62
2023/08/13 12:10:58;;;;;;;5.60;1.48;;;21.00;99.90;;;;;;5067402;28;20503;-61
2023/08/13 12:13:24;;;;;;;5.25;1.52;;;21.00;99.90;;;;;;5063542;28;20037;-62
2023/08/13 12:15:50;;;;;;;4.30;1.58;;;21.00;99.90;;;;;;5070217;28;20037;-61
2023/08/13 12:18:16;;;;;;;6.53;2.30;;;20.90;99.90;;;;;;5072097;28;20403;-61
2023/08/13 12:20:42;;;;;;;4.22;1.73;;;20.80;99.90;;;;;;5073741;28;20123;-61
2023/08/13 12:23:08;;;;;;;6.68;1.75;;;20.80;99.90;;;;;;5072714;28;20128;-62
2023/08/13 12:25:34;;;;;;;5.90;1.70;;;20.80;99.90;;;;;;5069738;28;20408;-61
2023/08/13 12:28:00;;;;;;;8.32;1.90;;;20.90;99.90;;;;;;5070338;28;20032;-62
2023/08/13 12:30:25;;;;;;;4.38;1.45;;;20.90;99.90;;;;;;5070149;28;20615;-61
2023/08/13 12:32:51;;;;;;;8.75;1.77;;;20.90;99.90;;;;;;5070864;28;20527;-62
2023/08/13 12:35:17;;;;;;;6.40;1.63;;;20.90;99.90;;;;;;5064890;28;20115;-62
2023/08/13 12:37:42;;;;;;;2.55;1.40;;;20.90;99.90;;;;;;5077940;28;20655;-62
2023/08/13 12:40:11;;;;;;;5.53;1.60;;;20.90;99.90;;;;;;5077389;28;20686;-62
2023/08/13 12:42:37;;;;;;;6.50;1.70;;;20.90;99.90;;;;;;5073318;28;20032;-61
2023/08/13 12:45:05;;;;;;;4.07;1.70;;;20.70;99.90;;;;;;5078299;28;20122;-61
2023/08/13 12:47:35;;;;;;;4.40;1.63;;;20.70;99.90;;;;;;5079107;28;20044;-62
2023/08/13 12:50:01;;;;;;;7.80;1.88;;;20.80;99.90;;;;;;5066057;28;20111;-61
2023/08/13 12:52:26;;;;;;;5.85;1.95;;;20.90;99.90;;;;;;5069981;28;20048;-62
2023/08/13 12:54:52;;;;;;;2.45;1.42;;;20.90;99.90;;;;;;5064682;28;20047;-62
2023/08/13 12:57:18;;;;;;;6.88;1.48;;;21.00;99.90;;;;;;5066546;28;20500;-63
2023/08/13 12:59:43;;;;;;;3.72;1.60;;;21.00;99.90;;;;;;5069507;28;20123;-63
2023/08/13 13:02:09;;;;;;;11.25;1.75;;;21.00;99.90;;;;;;5094070;28;20038;-62